createdAt,value
2019-01-16T10:36:50.660Z,40
2019-01-16T10:38:50.209Z,53
2019-01-16T10:40:49.858Z,99
2019-01-16T10:42:50.621Z,84
2019-01-16T10:44:50.045Z,89
2019-01-16T10:46:50.662Z,83
2019-01-16T10:48:50.333Z,76
2019-01-16T10:50:50.417Z,27
2019-01-16T10:52:50.284Z,89
2019-01-16T10:54:49.898Z,92
2019-01-16T10:56:50.539Z,92
2019-01-16T11:46:50.174Z,34
2019-01-16T11:48:49.778Z,16
2019-01-16T11:50:49.862Z,26
2019-01-16T11:52:50.290Z,28
2019-01-16T11:54:50.499Z,33
2019-01-16T11:56:49.922Z,22
2019-01-16T11:58:49.891Z,22
2019-01-16T12:00:50.277Z,19
2019-01-16T12:02:49.831Z,21
2019-01-16T12:04:49.937Z,30
2019-01-16T12:06:50.561Z,43
2019-01-16T12:08:49.932Z,79
2019-01-16T12:10:50.203Z,31
2019-01-16T12:12:50.656Z,30
2019-01-16T12:14:50.191Z,31
2019-01-16T12:16:50.486Z,25
2019-01-16T12:18:49.915Z,22
2019-01-16T12:20:50.036Z,21
2019-01-16T12:22:49.884Z,28
2019-01-16T12:24:50.062Z,22
2019-01-16T12:26:50.600Z,22
2019-01-16T12:28:50.508Z,26
2019-01-16T12:30:50.175Z,24
2019-01-16T12:32:50.595Z,15
2019-01-16T12:34:50.539Z,32
2019-01-16T12:36:49.994Z,21
2019-01-16T12:38:50.319Z,25
2019-01-16T12:40:50.227Z,36
2019-01-16T12:42:49.725Z,27
2019-01-16T12:44:50.073Z,31
2019-01-16T12:46:50.307Z,35
2019-01-16T12:48:49.753Z,45
2019-01-16T12:50:49.702Z,22
2019-01-16T12:52:54.642Z,22
2019-01-16T12:54:50.043Z,26
2019-01-16T12:56:49.973Z,24
2019-01-16T12:58:50.271Z,22
2019-01-16T13:00:49.771Z,62
2019-01-16T13:02:50.268Z,37
2019-01-16T13:04:49.712Z,24
2019-01-16T13:06:50.108Z,18
2019-01-16T13:08:50.268Z,33
2019-01-16T13:10:50.034Z,28
2019-01-16T13:12:50.327Z,33
2019-01-16T13:14:49.809Z,29
2019-01-16T13:16:50.116Z,28
2019-01-16T13:18:50.281Z,26
2019-01-16T13:20:50.545Z,29
2019-01-16T13:22:50.450Z,24
2019-01-16T13:24:50.674Z,29
2019-01-16T13:26:50.152Z,32
2019-01-16T13:28:50.298Z,21
2019-01-16T13:30:50.257Z,21
2019-01-16T13:32:50.404Z,36
2019-01-16T13:34:49.856Z,16
2019-01-16T13:36:50.508Z,26
2019-01-16T13:38:50.595Z,33
2019-01-16T13:40:49.744Z,35
2019-01-16T13:42:50.406Z,29
2019-01-16T13:44:50.328Z,19
2019-01-16T13:46:49.716Z,27
2019-01-16T13:48:53.208Z,28
2019-01-16T13:50:50.350Z,31
2019-01-16T13:52:50.326Z,16
2019-01-16T13:54:50.525Z,30
2019-01-16T13:56:49.823Z,23
2019-01-16T13:58:49.976Z,39
2019-01-16T14:00:50.699Z,78
2019-01-16T14:02:49.865Z,82
2019-01-16T14:04:50.618Z,82
